Hollis, New Hampshire
Current Conditions -  °F | °C
As of 8:51 AM on Friday 28 Nov 2014 (Local Time) from KASH Reporting Station
Scattered Clouds Scattered Clouds  
Wind Chill: 20°   Ceiling: Unl
Heat Index: 28°   Visibility: 10mi
Dew Point: 25°   Wind: 8mph
Humidity: 89%   Direction: 320°NW
Pressure: 30.07"   Gusts: NA
Location:  42.74°N, 71.59°W
Report Text: KASH 281351Z 32007KT 10SM SCT095 M02/M04 A3007 RMK AO2 T10221038 SLP442 $
Loading
Personal Weather Stations






























Interactive Weather Map New forecast layout! Learn more

10-Day Weather Forecast

Advertisements
Track Severe Weather on mobile